Terminal Aerodrome Forecast
Issued by NWS

Home | Current Version | Previous Version | Text Only | Print | Product List | Glossary On
Versions: 1 2 3 4 5 6 7 8 9 10 11 12 13 14 15 16 17 18 19 20 21 22 23
000
FTUS43 KGRR 282300
TAFMKG
TAF
KMKG 282326Z 2900/2924 29009KT P6SM SCT040
     FM290300 34006KT P6SM SKC
     FM290600 32003KT P6SM BKN050
     FM291400 29010KT P6SM VCSH BKN035=

USA.gov is the U.S. government's official web portal to all federal, state and local government web resources and services.